CheckWX is a tool to help pilots better visualize weather data.  It is not intended as a substitute for an official pre-flight weather briefing.

06:13:05 UTC

KDPA METAR
Dupage Airport
Chicago/West Chicago, Illinois, USA
Current

21 mins ago

KDPA 220552Z 17010KT 10SM CLR 16/03 A3003 RMK AO2 SLP165 T01610028 10228 20156 402560050 50000
Observed
Apr-22 @ 05:52 UTC
Wind
  • 170° at 10 KTS
Visibility
10 SM
Flight Rules
VFR
Cloud Levels
  • Clear skies
Temperature
16°C / 61°F
Dewpoint
C / 37°F
Humidity
42%
Altimeter
30.03" Hg
Pressure
1016.92 hPa
Previous

1 hour ago

KDPA 220452Z 16008KT 10SM CLR 16/03 A3003 RMK AO2 SLP167 T01610033
Observed
Apr-22 @ 04:52 UTC
Wind
  • 160° at 8 KTS
Visibility
10 SM
Flight Rules
VFR
Cloud Levels
  • Clear skies
Temperature
16°C / 61°F
Dewpoint
C / 37°F
Humidity
42%
Altimeter
30.03" Hg
Pressure
1016.92 hPa
Previous

2 hours ago

KDPA 220352Z 17009KT 10SM CLR 17/04 A3004 RMK AO2 SLP168 T01720039
Observed
Apr-22 @ 03:52 UTC
Wind
  • 170° at 9 KTS
Visibility
10 SM
Flight Rules
VFR
Cloud Levels
  • Clear skies
Temperature
17°C / 63°F
Dewpoint
C / 39°F
Humidity
42%
Altimeter
30.04" Hg
Pressure
1017.32 hPa